sensor_id;sensor_type;location;lat;lon;timestamp;P1;durP1;ratioP1;P2;durP2;ratioP2
18576;SDS011;9418;52.694;13.294;2023-01-23T00:02:06;11.90;;;10.50;;
18576;SDS011;9418;52.694;13.294;2023-01-23T00:04:33;13.07;;;10.93;;
18576;SDS011;9418;52.694;13.294;2023-01-23T00:07:00;13.60;;;10.97;;
18576;SDS011;9418;52.694;13.294;2023-01-23T00:09:27;14.97;;;11.47;;
18576;SDS011;9418;52.694;13.294;2023-01-23T00:11:54;13.57;;;11.53;;
18576;SDS011;9418;52.694;13.294;2023-01-23T00:14:21;16.53;;;11.90;;
18576;SDS011;9418;52.694;13.294;2023-01-23T00:16:48;12.03;;;10.80;;
18576;SDS011;9418;52.694;13.294;2023-01-23T00:19:14;13.83;;;11.13;;
18576;SDS011;9418;52.694;13.294;2023-01-23T00:21:41;16.27;;;11.70;;
18576;SDS011;9418;52.694;13.294;2023-01-23T00:24:08;16.77;;;11.40;;
18576;SDS011;9418;52.694;13.294;2023-01-23T00:26:36;15.30;;;12.37;;
18576;SDS011;9418;52.694;13.294;2023-01-23T00:29:03;14.67;;;12.70;;
18576;SDS011;9418;52.694;13.294;2023-01-23T00:31:32;13.00;;;11.50;;
18576;SDS011;9418;52.694;13.294;2023-01-23T00:34:01;13.63;;;11.50;;
18576;SDS011;9418;52.694;13.294;2023-01-23T00:36:29;15.50;;;11.70;;
18576;SDS011;9418;52.694;13.294;2023-01-23T00:38:57;13.23;;;11.27;;
18576;SDS011;9418;52.694;13.294;2023-01-23T00:41:24;16.03;;;11.63;;
18576;SDS011;9418;52.694;13.294;2023-01-23T00:43:51;20.23;;;12.67;;
18576;SDS011;9418;52.694;13.294;2023-01-23T00:46:18;12.70;;;11.20;;
18576;SDS011;9418;52.694;13.294;2023-01-23T00:48:46;18.57;;;12.40;;
18576;SDS011;9418;52.694;13.294;2023-01-23T00:51:13;15.40;;;12.10;;
18576;SDS011;9418;52.694;13.294;2023-01-23T00:53:39;12.60;;;11.30;;
18576;SDS011;9418;52.694;13.294;2023-01-23T00:56:06;17.90;;;12.80;;
18576;SDS011;9418;52.694;13.294;2023-01-23T00:58:33;16.57;;;12.30;;
18576;SDS011;9418;52.694;13.294;2023-01-23T01:01:00;16.63;;;12.43;;
18576;SDS011;9418;52.694;13.294;2023-01-23T01:03:26;14.20;;;11.70;;
18576;SDS011;9418;52.694;13.294;2023-01-23T01:05:54;15.67;;;12.07;;
18576;SDS011;9418;52.694;13.294;2023-01-23T01:08:21;12.63;;;11.30;;
18576;SDS011;9418;52.694;13.294;2023-01-23T01:10:47;15.23;;;12.00;;
18576;SDS011;9418;52.694;13.294;2023-01-23T01:13:14;17.13;;;13.20;;
18576;SDS011;9418;52.694;13.294;2023-01-23T01:15:45;16.93;;;11.70;;
18576;SDS011;9418;52.694;13.294;2023-01-23T01:18:12;14.83;;;12.63;;
18576;SDS011;9418;52.694;13.294;2023-01-23T01:20:40;16.13;;;12.40;;
18576;SDS011;9418;52.694;13.294;2023-01-23T01:23:08;15.00;;;12.57;;
18576;SDS011;9418;52.694;13.294;2023-01-23T01:25:35;16.30;;;13.20;;
18576;SDS011;9418;52.694;13.294;2023-01-23T01:28:02;13.07;;;11.53;;
18576;SDS011;9418;52.694;13.294;2023-01-23T01:30:29;14.23;;;12.10;;
18576;SDS011;9418;52.694;13.294;2023-01-23T01:32:56;13.50;;;11.40;;
18576;SDS011;9418;52.694;13.294;2023-01-23T01:35:23;13.80;;;11.17;;
18576;SDS011;9418;52.694;13.294;2023-01-23T01:37:50;13.53;;;10.93;;
18576;SDS011;9418;52.694;13.294;2023-01-23T01:40:18;15.43;;;12.47;;
18576;SDS011;9418;52.694;13.294;2023-01-23T01:42:48;15.73;;;11.53;;
18576;SDS011;9418;52.694;13.294;2023-01-23T01:48:27;14.57;;;11.80;;
18576;SDS011;9418;52.694;13.294;2023-01-23T01:50:56;15.27;;;12.20;;
18576;SDS011;9418;52.694;13.294;2023-01-23T01:53:24;17.37;;;13.87;;
18576;SDS011;9418;52.694;13.294;2023-01-23T01:55:54;14.03;;;11.60;;
18576;SDS011;9418;52.694;13.294;2023-01-23T01:58:22;14.70;;;12.20;;
18576;SDS011;9418;52.694;13.294;2023-01-23T02:00:49;14.07;;;12.20;;
18576;SDS011;9418;52.694;13.294;2023-01-23T02:03:16;13.57;;;11.80;;
18576;SDS011;9418;52.694;13.294;2023-01-23T02:05:44;19.50;;;11.97;;
18576;SDS011;9418;52.694;13.294;2023-01-23T02:08:14;14.87;;;11.60;;
18576;SDS011;9418;52.694;13.294;2023-01-23T02:10:44;14.47;;;10.87;;
18576;SDS011;9418;52.694;13.294;2023-01-23T02:13:20;14.47;;;12.10;;
18576;SDS011;9418;52.694;13.294;2023-01-23T02:15:48;14.40;;;11.90;;
18576;SDS011;9418;52.694;13.294;2023-01-23T02:18:16;15.03;;;11.90;;
18576;SDS011;9418;52.694;13.294;2023-01-23T02:20:43;16.37;;;12.87;;
18576;SDS011;9418;52.694;13.294;2023-01-23T02:23:11;16.83;;;13.60;;
18576;SDS011;9418;52.694;13.294;2023-01-23T02:25:49;16.07;;;12.80;;
18576;SDS011;9418;52.694;13.294;2023-01-23T02:28:34;16.70;;;13.60;;
18576;SDS011;9418;52.694;13.294;2023-01-23T02:31:02;16.20;;;12.80;;
18576;SDS011;9418;52.694;13.294;2023-01-23T02:33:43;19.43;;;13.47;;
18576;SDS011;9418;52.694;13.294;2023-01-23T02:36:15;16.13;;;12.60;;
18576;SDS011;9418;52.694;13.294;2023-01-23T02:38:54;17.93;;;12.83;;
18576;SDS011;9418;52.694;13.294;2023-01-23T02:41:29;18.60;;;13.67;;
18576;SDS011;9418;52.694;13.294;2023-01-23T02:43:57;17.10;;;12.80;;
18576;SDS011;9418;52.694;13.294;2023-01-23T02:46:27;15.47;;;12.30;;
18576;SDS011;9418;52.694;13.294;2023-01-23T02:48:53;21.07;;;15.17;;
18576;SDS011;9418;52.694;13.294;2023-01-23T02:51:20;17.90;;;13.43;;
18576;SDS011;9418;52.694;13.294;2023-01-23T02:53:48;17.30;;;13.47;;
18576;SDS011;9418;52.694;13.294;2023-01-23T02:56:15;19.67;;;15.37;;
18576;SDS011;9418;52.694;13.294;2023-01-23T02:58:43;17.50;;;14.77;;
18576;SDS011;9418;52.694;13.294;2023-01-23T03:01:27;17.50;;;13.40;;
18576;SDS011;9418;52.694;13.294;2023-01-23T03:03:53;17.40;;;14.23;;
18576;SDS011;9418;52.694;13.294;2023-01-23T03:06:28;16.80;;;14.00;;
18576;SDS011;9418;52.694;13.294;2023-01-23T03:09:00;20.37;;;14.40;;
18576;SDS011;9418;52.694;13.294;2023-01-23T03:11:27;18.47;;;13.03;;
18576;SDS011;9418;52.694;13.294;2023-01-23T03:13:55;20.53;;;14.10;;
18576;SDS011;9418;52.694;13.294;2023-01-23T03:16:21;18.13;;;14.20;;
18576;SDS011;9418;52.694;13.294;2023-01-23T03:18:48;19.10;;;13.80;;
18576;SDS011;9418;52.694;13.294;2023-01-23T03:21:15;21.37;;;15.60;;
18576;SDS011;9418;52.694;13.294;2023-01-23T03:23:41;17.20;;;14.03;;
18576;SDS011;9418;52.694;13.294;2023-01-23T03:26:10;17.10;;;13.63;;
18576;SDS011;9418;52.694;13.294;2023-01-23T03:28:37;20.70;;;14.60;;
18576;SDS011;9418;52.694;13.294;2023-01-23T03:31:22;19.00;;;13.80;;
18576;SDS011;9418;52.694;13.294;2023-01-23T03:33:49;17.43;;;14.47;;
18576;SDS011;9418;52.694;13.294;2023-01-23T03:36:17;18.37;;;13.93;;
18576;SDS011;9418;52.694;13.294;2023-01-23T03:38:43;17.60;;;14.13;;
18576;SDS011;9418;52.694;13.294;2023-01-23T03:41:24;15.83;;;12.20;;
18576;SDS011;9418;52.694;13.294;2023-01-23T03:43:50;18.23;;;14.13;;
18576;SDS011;9418;52.694;13.294;2023-01-23T03:46:17;20.83;;;15.07;;
18576;SDS011;9418;52.694;13.294;2023-01-23T03:48:45;18.40;;;14.20;;
18576;SDS011;9418;52.694;13.294;2023-01-23T03:51:11;18.07;;;14.03;;
18576;SDS011;9418;52.694;13.294;2023-01-23T03:53:38;18.50;;;14.80;;
18576;SDS011;9418;52.694;13.294;2023-01-23T03:56:05;18.33;;;14.50;;
18576;SDS011;9418;52.694;13.294;2023-01-23T03:58:32;17.57;;;14.20;;
18576;SDS011;9418;52.694;13.294;2023-01-23T04:00:58;16.33;;;13.20;;
18576;SDS011;9418;52.694;13.294;2023-01-23T04:03:27;21.10;;;15.33;;
18576;SDS011;9418;52.694;13.294;2023-01-23T04:05:56;18.73;;;14.40;;
18576;SDS011;9418;52.694;13.294;2023-01-23T04:08:23;18.57;;;14.70;;
18576;SDS011;9418;52.694;13.294;2023-01-23T04:10:49;19.00;;;13.70;;
18576;SDS011;9418;52.694;13.294;2023-01-23T04:13:16;22.07;;;14.20;;
18576;SDS011;9418;52.694;13.294;2023-01-23T04:15:42;18.57;;;14.37;;
18576;SDS011;9418;52.694;13.294;2023-01-23T04:18:09;20.50;;;13.93;;
18576;SDS011;9418;52.694;13.294;2023-01-23T04:20:35;19.73;;;14.33;;
18576;SDS011;9418;52.694;13.294;2023-01-23T04:23:03;18.87;;;14.20;;
18576;SDS011;9418;52.694;13.294;2023-01-23T04:25:30;22.80;;;14.60;;
18576;SDS011;9418;52.694;13.294;2023-01-23T04:27:56;20.33;;;14.90;;
18576;SDS011;9418;52.694;13.294;2023-01-23T04:30:23;16.20;;;13.37;;
18576;SDS011;9418;52.694;13.294;2023-01-23T04:32:49;17.17;;;13.10;;
18576;SDS011;9418;52.694;13.294;2023-01-23T04:35:16;18.77;;;13.70;;
18576;SDS011;9418;52.694;13.294;2023-01-23T04:37:43;19.03;;;13.57;;
18576;SDS011;9418;52.694;13.294;2023-01-23T04:40:11;20.60;;;15.17;;
18576;SDS011;9418;52.694;13.294;2023-01-23T04:42:38;20.20;;;14.23;;
18576;SDS011;9418;52.694;13.294;2023-01-23T04:45:05;19.57;;;14.67;;
18576;SDS011;9418;52.694;13.294;2023-01-23T04:47:32;18.53;;;14.80;;
18576;SDS011;9418;52.694;13.294;2023-01-23T04:49:59;16.93;;;13.70;;
18576;SDS011;9418;52.694;13.294;2023-01-23T04:52:26;19.60;;;14.73;;
18576;SDS011;9418;52.694;13.294;2023-01-23T04:54:52;16.10;;;13.87;;
18576;SDS011;9418;52.694;13.294;2023-01-23T04:57:20;18.47;;;14.73;;
18576;SDS011;9418;52.694;13.294;2023-01-23T04:59:47;18.13;;;14.77;;
18576;SDS011;9418;52.694;13.294;2023-01-23T05:02:14;20.30;;;14.63;;
18576;SDS011;9418;52.694;13.294;2023-01-23T05:04:41;18.67;;;13.70;;
18576;SDS011;9418;52.694;13.294;2023-01-23T05:07:07;16.90;;;13.40;;
18576;SDS011;9418;52.694;13.294;2023-01-23T05:09:36;17.90;;;13.80;;
18576;SDS011;9418;52.694;13.294;2023-01-23T05:12:03;20.27;;;14.80;;
18576;SDS011;9418;52.694;13.294;2023-01-23T05:14:31;18.20;;;14.63;;
18576;SDS011;9418;52.694;13.294;2023-01-23T05:16:58;19.30;;;15.03;;
18576;SDS011;9418;52.694;13.294;2023-01-23T05:19:24;18.77;;;14.20;;
18576;SDS011;9418;52.694;13.294;2023-01-23T05:21:51;17.47;;;13.63;;
18576;SDS011;9418;52.694;13.294;2023-01-23T05:24:17;20.97;;;14.90;;
18576;SDS011;9418;52.694;13.294;2023-01-23T05:26:44;19.30;;;13.93;;
18576;SDS011;9418;52.694;13.294;2023-01-23T05:29:10;19.43;;;14.43;;
18576;SDS011;9418;52.694;13.294;2023-01-23T05:31:38;18.13;;;14.30;;
18576;SDS011;9418;52.694;13.294;2023-01-23T05:34:05;22.97;;;16.30;;
18576;SDS011;9418;52.694;13.294;2023-01-23T05:36:31;19.07;;;12.37;;
18576;SDS011;9418;52.694;13.294;2023-01-23T05:38:58;16.90;;;14.40;;
18576;SDS011;9418;52.694;13.294;2023-01-23T05:41:24;19.47;;;14.70;;
18576;SDS011;9418;52.694;13.294;2023-01-23T05:43:51;19.67;;;14.90;;
18576;SDS011;9418;52.694;13.294;2023-01-23T05:46:17;20.90;;;14.83;;
18576;SDS011;9418;52.694;13.294;2023-01-23T05:48:48;17.37;;;14.47;;
18576;SDS011;9418;52.694;13.294;2023-01-23T05:51:15;20.37;;;15.60;;
18576;SDS011;9418;52.694;13.294;2023-01-23T05:53:42;20.53;;;14.27;;
18576;SDS011;9418;52.694;13.294;2023-01-23T05:56:08;19.53;;;15.07;;
18576;SDS011;9418;52.694;13.294;2023-01-23T05:58:35;26.00;;;16.30;;
18576;SDS011;9418;52.694;13.294;2023-01-23T06:01:02;18.73;;;14.60;;
18576;SDS011;9418;52.694;13.294;2023-01-23T06:03:30;18.60;;;15.23;;
18576;SDS011;9418;52.694;13.294;2023-01-23T06:05:58;19.70;;;14.90;;
18576;SDS011;9418;52.694;13.294;2023-01-23T06:08:26;17.43;;;14.10;;
18576;SDS011;9418;52.694;13.294;2023-01-23T06:10:52;19.33;;;13.63;;
18576;SDS011;9418;52.694;13.294;2023-01-23T06:13:22;17.20;;;13.23;;
18576;SDS011;9418;52.694;13.294;2023-01-23T06:15:49;17.23;;;13.53;;
18576;SDS011;9418;52.694;13.294;2023-01-23T06:18:15;19.67;;;14.73;;
18576;SDS011;9418;52.694;13.294;2023-01-23T06:20:42;20.90;;;13.97;;
18576;SDS011;9418;52.694;13.294;2023-01-23T06:23:10;18.27;;;13.67;;
18576;SDS011;9418;52.694;13.294;2023-01-23T06:25:36;18.67;;;14.03;;
18576;SDS011;9418;52.694;13.294;2023-01-23T06:28:04;16.73;;;13.57;;
18576;SDS011;9418;52.694;13.294;2023-01-23T06:30:30;17.53;;;14.23;;
18576;SDS011;9418;52.694;13.294;2023-01-23T06:32:57;17.90;;;14.23;;
18576;SDS011;9418;52.694;13.294;2023-01-23T06:35:24;16.03;;;13.27;;
18576;SDS011;9418;52.694;13.294;2023-01-23T06:37:51;19.40;;;13.80;;
18576;SDS011;9418;52.694;13.294;2023-01-23T06:40:19;17.10;;;12.90;;
18576;SDS011;9418;52.694;13.294;2023-01-23T06:42:45;18.93;;;14.93;;
18576;SDS011;9418;52.694;13.294;2023-01-23T06:45:12;18.77;;;13.90;;
18576;SDS011;9418;52.694;13.294;2023-01-23T06:47:38;13.30;;;11.63;;
18576;SDS011;9418;52.694;13.294;2023-01-23T06:50:05;19.47;;;15.00;;
18576;SDS011;9418;52.694;13.294;2023-01-23T06:52:33;19.80;;;14.43;;
18576;SDS011;9418;52.694;13.294;2023-01-23T06:54:59;18.83;;;13.43;;
18576;SDS011;9418;52.694;13.294;2023-01-23T06:57:27;18.30;;;14.03;;
18576;SDS011;9418;52.694;13.294;2023-01-23T06:59:54;21.23;;;13.53;;
18576;SDS011;9418;52.694;13.294;2023-01-23T07:02:20;17.70;;;13.87;;
18576;SDS011;9418;52.694;13.294;2023-01-23T07:04:47;17.17;;;14.60;;
18576;SDS011;9418;52.694;13.294;2023-01-23T07:07:13;19.47;;;14.20;;
18576;SDS011;9418;52.694;13.294;2023-01-23T07:09:40;20.20;;;14.70;;
18576;SDS011;9418;52.694;13.294;2023-01-23T07:12:07;20.10;;;14.60;;
18576;SDS011;9418;52.694;13.294;2023-01-23T07:14:35;16.60;;;13.30;;
18576;SDS011;9418;52.694;13.294;2023-01-23T07:17:01;19.20;;;14.73;;
18576;SDS011;9418;52.694;13.294;2023-01-23T07:19:28;18.23;;;14.00;;
18576;SDS011;9418;52.694;13.294;2023-01-23T07:21:55;18.17;;;14.47;;
18576;SDS011;9418;52.694;13.294;2023-01-23T07:24:21;19.17;;;14.10;;
18576;SDS011;9418;52.694;13.294;2023-01-23T07:26:48;17.43;;;14.97;;
18576;SDS011;9418;52.694;13.294;2023-01-23T07:29:15;17.87;;;14.30;;
18576;SDS011;9418;52.694;13.294;2023-01-23T07:31:43;18.00;;;13.97;;
18576;SDS011;9418;52.694;13.294;2023-01-23T07:34:10;15.67;;;14.00;;
18576;SDS011;9418;52.694;13.294;2023-01-23T07:36:37;17.43;;;14.00;;
18576;SDS011;9418;52.694;13.294;2023-01-23T07:39:03;18.60;;;14.40;;
18576;SDS011;9418;52.694;13.294;2023-01-23T07:41:30;17.70;;;14.73;;
18576;SDS011;9418;52.694;13.294;2023-01-23T07:43:56;15.67;;;13.20;;
18576;SDS011;9418;52.694;13.294;2023-01-23T07:46:23;17.50;;;14.23;;
18576;SDS011;9418;52.694;13.294;2023-01-23T07:48:52;17.00;;;14.07;;
18576;SDS011;9418;52.694;13.294;2023-01-23T07:51:20;19.70;;;14.83;;
18576;SDS011;9418;52.694;13.294;2023-01-23T07:53:46;17.77;;;14.97;;
18576;SDS011;9418;52.694;13.294;2023-01-23T07:56:13;18.43;;;14.37;;
18576;SDS011;9418;52.694;13.294;2023-01-23T07:58:39;19.50;;;15.70;;
18576;SDS011;9418;52.694;13.294;2023-01-23T08:01:07;17.83;;;14.33;;
18576;SDS011;9418;52.694;13.294;2023-01-23T08:03:34;21.80;;;15.20;;
18576;SDS011;9418;52.694;13.294;2023-01-23T08:06:02;17.80;;;14.03;;
18576;SDS011;9418;52.694;13.294;2023-01-23T08:08:29;20.63;;;15.27;;
18576;SDS011;9418;52.694;13.294;2023-01-23T08:10:55;16.43;;;13.93;;
18576;SDS011;9418;52.694;13.294;2023-01-23T08:13:22;16.90;;;13.40;;
18576;SDS011;9418;52.694;13.294;2023-01-23T08:15:49;18.33;;;13.83;;
18576;SDS011;9418;52.694;13.294;2023-01-23T08:18:17;21.03;;;15.00;;
18576;SDS011;9418;52.694;13.294;2023-01-23T08:20:43;21.23;;;13.97;;
18576;SDS011;9418;52.694;13.294;2023-01-23T08:23:18;17.30;;;15.00;;
18576;SDS011;9418;52.694;13.294;2023-01-23T08:25:45;16.60;;;13.27;;
18576;SDS011;9418;52.694;13.294;2023-01-23T08:28:11;17.77;;;14.67;;
18576;SDS011;9418;52.694;13.294;2023-01-23T08:30:38;21.53;;;14.73;;
18576;SDS011;9418;52.694;13.294;2023-01-23T08:33:04;18.30;;;14.90;;
18576;SDS011;9418;52.694;13.294;2023-01-23T08:35:31;17.40;;;14.20;;
18576;SDS011;9418;52.694;13.294;2023-01-23T08:37:57;15.83;;;13.30;;
18576;SDS011;9418;52.694;13.294;2023-01-23T08:40:25;19.03;;;14.70;;
18576;SDS011;9418;52.694;13.294;2023-01-23T08:42:52;16.83;;;13.87;;
18576;SDS011;9418;52.694;13.294;2023-01-23T08:45:18;17.57;;;13.10;;
18576;SDS011;9418;52.694;13.294;2023-01-23T08:47:46;17.30;;;14.53;;
18576;SDS011;9418;52.694;13.294;2023-01-23T08:50:13;18.33;;;14.57;;
18576;SDS011;9418;52.694;13.294;2023-01-23T08:52:39;17.70;;;14.00;;
18576;SDS011;9418;52.694;13.294;2023-01-23T08:55:06;20.60;;;15.97;;
18576;SDS011;9418;52.694;13.294;2023-01-23T08:57:36;17.70;;;14.50;;
18576;SDS011;9418;52.694;13.294;2023-01-23T09:00:02;19.17;;;14.30;;
18576;SDS011;9418;52.694;13.294;2023-01-23T09:02:30;20.57;;;14.90;;
18576;SDS011;9418;52.694;13.294;2023-01-23T09:04:56;24.80;;;18.60;;
18576;SDS011;9418;52.694;13.294;2023-01-23T09:07:23;19.70;;;15.70;;
18576;SDS011;9418;52.694;13.294;2023-01-23T09:09:49;17.80;;;15.40;;
18576;SDS011;9418;52.694;13.294;2023-01-23T09:12:16;22.70;;;16.13;;
18576;SDS011;9418;52.694;13.294;2023-01-23T09:14:44;17.67;;;14.43;;
18576;SDS011;9418;52.694;13.294;2023-01-23T09:17:11;19.23;;;14.23;;
18576;SDS011;9418;52.694;13.294;2023-01-23T09:19:37;17.07;;;14.20;;
18576;SDS011;9418;52.694;13.294;2023-01-23T09:22:04;17.43;;;13.77;;
18576;SDS011;9418;52.694;13.294;2023-01-23T09:24:30;19.00;;;15.17;;
18576;SDS011;9418;52.694;13.294;2023-01-23T09:26:57;18.47;;;13.97;;
18576;SDS011;9418;52.694;13.294;2023-01-23T09:29:23;19.37;;;15.20;;
18576;SDS011;9418;52.694;13.294;2023-01-23T09:31:51;19.10;;;14.50;;
18576;SDS011;9418;52.694;13.294;2023-01-23T09:34:18;16.40;;;13.37;;
18576;SDS011;9418;52.694;13.294;2023-01-23T09:36:45;18.77;;;13.73;;
18576;SDS011;9418;52.694;13.294;2023-01-23T09:39:11;18.90;;;15.53;;
18576;SDS011;9418;52.694;13.294;2023-01-23T09:41:38;23.60;;;13.80;;
18576;SDS011;9418;52.694;13.294;2023-01-23T09:44:06;16.87;;;13.47;;
18576;SDS011;9418;52.694;13.294;2023-01-23T09:46:38;16.60;;;13.13;;
18576;SDS011;9418;52.694;13.294;2023-01-23T09:49:11;19.03;;;14.40;;
18576;SDS011;9418;52.694;13.294;2023-01-23T09:51:44;17.07;;;14.20;;
18576;SDS011;9418;52.694;13.294;2023-01-23T09:54:19;23.07;;;14.97;;
18576;SDS011;9418;52.694;13.294;2023-01-23T09:56:54;17.13;;;13.70;;
18576;SDS011;9418;52.694;13.294;2023-01-23T09:59:24;18.00;;;14.13;;
18576;SDS011;9418;52.694;13.294;2023-01-23T10:01:58;18.83;;;15.40;;
18576;SDS011;9418;52.694;13.294;2023-01-23T10:04:26;30.70;;;22.20;;
18576;SDS011;9418;52.694;13.294;2023-01-23T10:06:58;25.57;;;18.40;;
18576;SDS011;9418;52.694;13.294;2023-01-23T10:09:41;41.30;;;27.97;;
18576;SDS011;9418;52.694;13.294;2023-01-23T10:12:22;37.40;;;25.60;;
18576;SDS011;9418;52.694;13.294;2023-01-23T10:15:05;24.03;;;19.73;;
18576;SDS011;9418;52.694;13.294;2023-01-23T10:17:42;20.30;;;16.07;;
18576;SDS011;9418;52.694;13.294;2023-01-23T10:20:37;18.23;;;15.47;;
18576;SDS011;9418;52.694;13.294;2023-01-23T10:23:14;19.30;;;16.20;;
18576;SDS011;9418;52.694;13.294;2023-01-23T10:25:50;21.63;;;16.53;;
18576;SDS011;9418;52.694;13.294;2023-01-23T10:28:21;15.70;;;13.53;;
18576;SDS011;9418;52.694;13.294;2023-01-23T10:30:56;21.07;;;15.00;;
18576;SDS011;9418;52.694;13.294;2023-01-23T10:33:27;31.60;;;15.90;;
18576;SDS011;9418;52.694;13.294;2023-01-23T10:36:03;18.83;;;15.03;;
18576;SDS011;9418;52.694;13.294;2023-01-23T10:38:38;18.93;;;14.70;;
18576;SDS011;9418;52.694;13.294;2023-01-23T10:41:11;19.97;;;13.70;;
18576;SDS011;9418;52.694;13.294;2023-01-23T10:43:39;18.43;;;14.77;;
18576;SDS011;9418;52.694;13.294;2023-01-23T10:46:10;23.03;;;14.30;;
18576;SDS011;9418;52.694;13.294;2023-01-23T10:48:39;19.60;;;15.90;;
18576;SDS011;9418;52.694;13.294;2023-01-23T10:51:26;25.00;;;19.23;;
18576;SDS011;9418;52.694;13.294;2023-01-23T10:54:02;26.13;;;19.47;;
18576;SDS011;9418;52.694;13.294;2023-01-23T10:56:36;24.00;;;16.90;;
18576;SDS011;9418;52.694;13.294;2023-01-23T10:59:12;26.83;;;17.60;;
18576;SDS011;9418;52.694;13.294;2023-01-23T11:01:53;19.40;;;15.90;;
18576;SDS011;9418;52.694;13.294;2023-01-23T11:04:23;20.17;;;14.97;;
18576;SDS011;9418;52.694;13.294;2023-01-23T11:07:00;21.23;;;14.97;;
18576;SDS011;9418;52.694;13.294;2023-01-23T11:09:30;17.43;;;13.67;;
18576;SDS011;9418;52.694;13.294;2023-01-23T11:12:00;20.13;;;15.40;;
18576;SDS011;9418;52.694;13.294;2023-01-23T11:14:28;18.83;;;15.83;;
18576;SDS011;9418;52.694;13.294;2023-01-23T11:16:59;18.27;;;14.57;;
18576;SDS011;9418;52.694;13.294;2023-01-23T11:19:28;17.13;;;13.87;;
18576;SDS011;9418;52.694;13.294;2023-01-23T11:21:58;19.70;;;15.23;;
18576;SDS011;9418;52.694;13.294;2023-01-23T11:24:29;20.60;;;13.80;;
18576;SDS011;9418;52.694;13.294;2023-01-23T11:26:58;18.83;;;14.10;;
18576;SDS011;9418;52.694;13.294;2023-01-23T11:29:27;15.77;;;14.03;;
18576;SDS011;9418;52.694;13.294;2023-01-23T11:31:57;18.30;;;14.83;;
18576;SDS011;9418;52.694;13.294;2023-01-23T11:34:26;18.77;;;14.77;;
18576;SDS011;9418;52.694;13.294;2023-01-23T11:36:59;23.10;;;17.43;;
18576;SDS011;9418;52.694;13.294;2023-01-23T11:39:44;23.07;;;16.47;;
18576;SDS011;9418;52.694;13.294;2023-01-23T11:42:14;23.83;;;15.43;;
18576;SDS011;9418;52.694;13.294;2023-01-23T11:44:43;22.93;;;17.90;;
18576;SDS011;9418;52.694;13.294;2023-01-23T11:50:14;20.40;;;14.80;;
18576;SDS011;9418;52.694;13.294;2023-01-23T11:52:52;21.37;;;14.37;;
18576;SDS011;9418;52.694;13.294;2023-01-23T11:55:30;18.63;;;15.43;;
18576;SDS011;9418;52.694;13.294;2023-01-23T11:58:06;19.27;;;14.30;;
18576;SDS011;9418;52.694;13.294;2023-01-23T12:00:42;17.70;;;14.07;;
18576;SDS011;9418;52.694;13.294;2023-01-23T12:03:19;18.63;;;14.63;;
18576;SDS011;9418;52.694;13.294;2023-01-23T12:06:08;21.13;;;14.77;;
18576;SDS011;9418;52.694;13.294;2023-01-23T12:09:04;19.97;;;15.43;;
18576;SDS011;9418;52.694;13.294;2023-01-23T12:11:38;16.90;;;13.90;;
18576;SDS011;9418;52.694;13.294;2023-01-23T12:14:16;21.67;;;16.13;;
18576;SDS011;9418;52.694;13.294;2023-01-23T12:17:04;20.27;;;14.50;;
18576;SDS011;9418;52.694;13.294;2023-01-23T12:22:45;15.83;;;13.10;;
18576;SDS011;9418;52.694;13.294;2023-01-23T12:25:25;17.60;;;14.00;;
18576;SDS011;9418;52.694;13.294;2023-01-23T12:27:59;18.13;;;13.17;;
18576;SDS011;9418;52.694;13.294;2023-01-23T12:30:45;17.47;;;14.10;;
18576;SDS011;9418;52.694;13.294;2023-01-23T12:33:25;17.90;;;12.57;;
18576;SDS011;9418;52.694;13.294;2023-01-23T12:39:05;17.33;;;11.50;;
18576;SDS011;9418;52.694;13.294;2023-01-23T12:41:43;16.40;;;13.13;;
18576;SDS011;9418;52.694;13.294;2023-01-23T12:44:14;17.03;;;13.60;;
18576;SDS011;9418;52.694;13.294;2023-01-23T12:46:47;17.30;;;12.47;;
18576;SDS011;9418;52.694;13.294;2023-01-23T12:49:22;12.77;;;11.07;;
18576;SDS011;9418;52.694;13.294;2023-01-23T12:51:53;15.07;;;11.80;;
18576;SDS011;9418;52.694;13.294;2023-01-23T12:54:26;15.83;;;12.30;;
18576;SDS011;9418;52.694;13.294;2023-01-23T12:57:00;16.80;;;12.67;;
18576;SDS011;9418;52.694;13.294;2023-01-23T12:59:30;17.80;;;12.67;;
18576;SDS011;9418;52.694;13.294;2023-01-23T13:02:13;14.93;;;12.17;;
18576;SDS011;9418;52.694;13.294;2023-01-23T13:04:53;16.13;;;11.37;;
18576;SDS011;9418;52.694;13.294;2023-01-23T13:07:31;14.50;;;11.80;;
18576;SDS011;9418;52.694;13.294;2023-01-23T13:10:20;17.10;;;12.17;;
18576;SDS011;9418;52.694;13.294;2023-01-23T13:13:17;16.60;;;13.10;;
18576;SDS011;9418;52.694;13.294;2023-01-23T13:15:44;13.27;;;11.03;;
18576;SDS011;9418;52.694;13.294;2023-01-23T13:18:27;14.83;;;11.50;;
18576;SDS011;9418;52.694;13.294;2023-01-23T13:21:14;18.10;;;11.33;;
18576;SDS011;9418;52.694;13.294;2023-01-23T13:24:11;14.10;;;11.23;;
18576;SDS011;9418;52.694;13.294;2023-01-23T13:30:03;12.33;;;11.03;;
18576;SDS011;9418;52.694;13.294;2023-01-23T13:32:51;10.87;;;9.63;;
18576;SDS011;9418;52.694;13.294;2023-01-23T13:35:50;12.97;;;10.40;;
18576;SDS011;9418;52.694;13.294;2023-01-23T13:38:27;18.23;;;10.83;;
18576;SDS011;9418;52.694;13.294;2023-01-23T13:43:53;12.77;;;10.03;;
18576;SDS011;9418;52.694;13.294;2023-01-23T13:46:30;17.60;;;11.13;;
18576;SDS011;9418;52.694;13.294;2023-01-23T13:49:07;15.37;;;11.40;;
18576;SDS011;9418;52.694;13.294;2023-01-23T13:52:00;12.47;;;9.90;;
18576;SDS011;9418;52.694;13.294;2023-01-23T13:54:47;13.40;;;10.77;;
18576;SDS011;9418;52.694;13.294;2023-01-23T13:57:32;17.60;;;11.87;;
18576;SDS011;9418;52.694;13.294;2023-01-23T14:00:00;13.13;;;10.40;;
18576;SDS011;9418;52.694;13.294;2023-01-23T14:02:29;14.07;;;10.50;;
18576;SDS011;9418;52.694;13.294;2023-01-23T14:05:18;19.33;;;12.53;;
18576;SDS011;9418;52.694;13.294;2023-01-23T14:07:50;17.80;;;12.17;;
18576;SDS011;9418;52.694;13.294;2023-01-23T14:10:26;14.03;;;11.10;;
18576;SDS011;9418;52.694;13.294;2023-01-23T14:13:02;17.23;;;13.73;;
18576;SDS011;9418;52.694;13.294;2023-01-23T14:15:31;14.40;;;11.83;;
18576;SDS011;9418;52.694;13.294;2023-01-23T14:18:26;17.63;;;14.70;;
18576;SDS011;9418;52.694;13.294;2023-01-23T14:21:02;14.20;;;12.70;;
18576;SDS011;9418;52.694;13.294;2023-01-23T14:23:35;20.77;;;14.60;;
18576;SDS011;9418;52.694;13.294;2023-01-23T14:26:04;14.97;;;13.03;;
18576;SDS011;9418;52.694;13.294;2023-01-23T14:28:32;12.80;;;11.50;;
18576;SDS011;9418;52.694;13.294;2023-01-23T14:31:00;13.40;;;12.00;;
18576;SDS011;9418;52.694;13.294;2023-01-23T14:33:36;15.00;;;11.37;;
18576;SDS011;9418;52.694;13.294;2023-01-23T14:36:05;15.33;;;9.10;;
18576;SDS011;9418;52.694;13.294;2023-01-23T14:38:37;13.20;;;10.20;;
18576;SDS011;9418;52.694;13.294;2023-01-23T14:41:04;14.77;;;10.03;;
18576;SDS011;9418;52.694;13.294;2023-01-23T14:43:32;13.60;;;10.90;;
18576;SDS011;9418;52.694;13.294;2023-01-23T14:46:01;12.77;;;11.00;;
18576;SDS011;9418;52.694;13.294;2023-01-23T14:48:32;13.00;;;10.87;;
18576;SDS011;9418;52.694;13.294;2023-01-23T14:51:04;13.40;;;11.33;;
18576;SDS011;9418;52.694;13.294;2023-01-23T14:53:34;12.20;;;10.53;;
18576;SDS011;9418;52.694;13.294;2023-01-23T14:56:05;14.47;;;11.73;;
18576;SDS011;9418;52.694;13.294;2023-01-23T14:58:33;14.73;;;11.87;;